This is the latest recevied weather packets stored in our database for station/object SP7WMI-13. If no packets are shown the sender has not sent any weather packets the latest 1 day(s).
| Time | Temp. | Humidity | Pressure | Rain* | Wind** | Luminosity | Snow |
|---|---|---|---|---|---|---|---|
| 1777990621 | 29.44° C | 20% | 1004.3 hPa | 0 mm | 4.02 m/s, 269° | - | - |
| 1777989928 | 29.44° C | 21% | 1004.4 hPa | 0 mm | 0 m/s | - | - |
| 1777989226 | 29.44° C | 21% | 1004.7 hPa | 0 mm | 4.02 m/s, 280° | - | - |
| 1777988819 | 29.44° C | 21% | 1004.6 hPa | 0 mm | 0 m/s | - | - |
| 1777988460 | 29.44° C | 20% | 1004.7 hPa | 0 mm | 4.02 m/s, 274° | - | - |
| 1777987734 | 28.89° C | 21% | 1004.8 hPa | 0 mm | 0 m/s | - | - |
| 1777987431 | 29.44° C | 21% | 1004.8 hPa | 0 mm | 4.47 m/s, 276° | - | - |
| 1777987027 | 28.89° C | 21% | 1004.8 hPa | 0 mm | 0.89 m/s, 292° | - | - |
| 1777986692 | 28.89° C | 21% | 1005 hPa | 0 mm | 4.47 m/s, 277° | - | - |
| 1777986387 | 28.33° C | 22% | 1004.9 hPa | 0 mm | 0.45 m/s, 270° | - | - |
| 1777985484 | 29.44° C | 20% | 1005 hPa | 0 mm | 1.34 m/s, 275° | - | - |
| 1777984587 | 28.33° C | 21% | 1005.4 hPa | 0 mm | 0.89 m/s, 281° | - | - |
| 1777983677 | 28.33° C | 21% | 1005.6 hPa | 0 mm | 0.45 m/s, 273° | - | - |
| 1777982774 | 26.67° C | 24% | 1005.8 hPa | 0 mm | 0 m/s | - | - |
| 1777981871 | 25.56° C | 27% | 1006 hPa | 0 mm | 0 m/s | - | - |
| 1777980968 | 26.11° C | 27% | 1005.9 hPa | 0 mm | 0.45 m/s, 277° | - | - |
| 1777980065 | 25° C | 32% | 1006.1 hPa | 0 mm | 0 m/s | - | - |
| 1777979471 | 24.44° C | 32% | 1006.3 hPa | 0 mm | 3.58 m/s, 273° | - | - |
| 1777978784 | 24.44° C | 32% | 1006.4 hPa | 0 mm | 0 m/s | - | - |
| 1777978139 | 25° C | 32% | 1006.6 hPa | 0 mm | 3.58 m/s, 275° | - | - |
| 1777977462 | 25° C | 35% | 1006.7 hPa | 0 mm | 0 m/s | - | - |
| 1777976559 | 24.44° C | 35% | 1006.9 hPa | 0 mm | 0.89 m/s, 265° | - | - |
| 1777975656 | 23.89° C | 37% | 1007.1 hPa | 0 mm | 1.34 m/s, 275° | - | - |
| 1777974753 | 23.33° C | 36% | 1007.3 hPa | 0 mm | 0.45 m/s, 286° | - | - |
| 1777973850 | 23.33° C | 37% | 1007.5 hPa | 0 mm | 0.45 m/s, 270° | - | - |
* Rain since midnight (hover to see other rain measurements)
** Current wind speed in m/s (hover to see current wind gust speed)